sensor_id;sensor_type;location;lat;lon;timestamp;P1;durP1;ratioP1;P2;durP2;ratioP2
34236;SDS011;20501;45.956;13.632;2023-02-28T00:01:13;8.32;;;5.38;;
34236;SDS011;20501;45.956;13.632;2023-02-28T00:03:39;9.68;;;5.25;;
34236;SDS011;20501;45.956;13.632;2023-02-28T00:06:05;7.63;;;5.28;;
34236;SDS011;20501;45.956;13.632;2023-02-28T00:11:00;7.65;;;5.03;;
34236;SDS011;20501;45.956;13.632;2023-02-28T00:13:27;10.45;;;4.70;;
34236;SDS011;20501;45.956;13.632;2023-02-28T00:16:02;12.27;;;6.07;;
34236;SDS011;20501;45.956;13.632;2023-02-28T00:18:34;10.90;;;6.20;;
34236;SDS011;20501;45.956;13.632;2023-02-28T00:20:59;8.10;;;5.45;;
34236;SDS011;20501;45.956;13.632;2023-02-28T00:23:25;6.88;;;4.68;;
34236;SDS011;20501;45.956;13.632;2023-02-28T00:25:51;9.20;;;5.85;;
34236;SDS011;20501;45.956;13.632;2023-02-28T00:28:18;11.73;;;5.68;;
34236;SDS011;20501;45.956;13.632;2023-02-28T00:30:43;7.75;;;5.10;;
34236;SDS011;20501;45.956;13.632;2023-02-28T00:33:09;9.25;;;5.43;;
34236;SDS011;20501;45.956;13.632;2023-02-28T00:35:35;9.50;;;5.05;;
34236;SDS011;20501;45.956;13.632;2023-02-28T00:38:00;9.18;;;5.72;;
34236;SDS011;20501;45.956;13.632;2023-02-28T00:40:26;9.52;;;5.47;;
34236;SDS011;20501;45.956;13.632;2023-02-28T00:42:52;10.88;;;6.13;;
34236;SDS011;20501;45.956;13.632;2023-02-28T00:45:17;11.52;;;5.90;;
34236;SDS011;20501;45.956;13.632;2023-02-28T00:47:42;10.57;;;5.07;;
34236;SDS011;20501;45.956;13.632;2023-02-28T00:50:08;8.85;;;5.95;;
34236;SDS011;20501;45.956;13.632;2023-02-28T00:52:34;10.17;;;6.30;;
34236;SDS011;20501;45.956;13.632;2023-02-28T00:54:59;10.45;;;6.60;;
34236;SDS011;20501;45.956;13.632;2023-02-28T00:57:25;10.07;;;5.80;;
34236;SDS011;20501;45.956;13.632;2023-02-28T00:59:51;11.57;;;6.65;;
34236;SDS011;20501;45.956;13.632;2023-02-28T01:02:19;13.07;;;5.57;;
34236;SDS011;20501;45.956;13.632;2023-02-28T01:04:45;13.15;;;6.75;;
34236;SDS011;20501;45.956;13.632;2023-02-28T01:07:11;10.07;;;6.18;;
34236;SDS011;20501;45.956;13.632;2023-02-28T01:09:36;8.20;;;4.63;;
34236;SDS011;20501;45.956;13.632;2023-02-28T01:12:02;9.75;;;6.03;;
34236;SDS011;20501;45.956;13.632;2023-02-28T01:14:27;10.40;;;6.13;;
34236;SDS011;20501;45.956;13.632;2023-02-28T01:16:53;12.07;;;7.30;;
34236;SDS011;20501;45.956;13.632;2023-02-28T01:19:18;8.43;;;5.38;;
34236;SDS011;20501;45.956;13.632;2023-02-28T01:21:44;9.77;;;5.32;;
34236;SDS011;20501;45.956;13.632;2023-02-28T01:24:09;9.90;;;6.05;;
34236;SDS011;20501;45.956;13.632;2023-02-28T01:26:34;14.15;;;6.43;;
34236;SDS011;20501;45.956;13.632;2023-02-28T01:29:00;12.85;;;5.80;;
34236;SDS011;20501;45.956;13.632;2023-02-28T01:31:26;8.13;;;4.97;;
34236;SDS011;20501;45.956;13.632;2023-02-28T01:33:51;11.30;;;6.55;;
34236;SDS011;20501;45.956;13.632;2023-02-28T01:36:18;10.25;;;6.45;;
34236;SDS011;20501;45.956;13.632;2023-02-28T01:38:45;11.77;;;7.28;;
34236;SDS011;20501;45.956;13.632;2023-02-28T01:41:33;11.20;;;6.18;;
34236;SDS011;20501;45.956;13.632;2023-02-28T01:46:31;11.10;;;6.22;;
34236;SDS011;20501;45.956;13.632;2023-02-28T01:51:38;15.43;;;5.53;;
34236;SDS011;20501;45.956;13.632;2023-02-28T01:54:16;11.10;;;6.05;;
34236;SDS011;20501;45.956;13.632;2023-02-28T01:56:47;10.00;;;6.75;;
34236;SDS011;20501;45.956;13.632;2023-02-28T01:59:20;12.30;;;6.50;;
34236;SDS011;20501;45.956;13.632;2023-02-28T02:01:58;9.75;;;6.90;;
34236;SDS011;20501;45.956;13.632;2023-02-28T02:04:25;13.43;;;7.45;;
34236;SDS011;20501;45.956;13.632;2023-02-28T02:06:58;12.00;;;6.88;;
34236;SDS011;20501;45.956;13.632;2023-02-28T02:09:24;11.32;;;6.18;;
34236;SDS011;20501;45.956;13.632;2023-02-28T02:11:49;12.60;;;6.47;;
34236;SDS011;20501;45.956;13.632;2023-02-28T02:31:12;12.25;;;7.10;;
34236;SDS011;20501;45.956;13.632;2023-02-28T02:42:34;9.88;;;6.07;;
34236;SDS011;20501;45.956;13.632;2023-02-28T02:47:41;11.30;;;6.25;;
34236;SDS011;20501;45.956;13.632;2023-02-28T02:50:11;13.63;;;6.75;;
34236;SDS011;20501;45.956;13.632;2023-02-28T02:52:46;11.65;;;6.07;;
34236;SDS011;20501;45.956;13.632;2023-02-28T02:55:16;12.02;;;6.85;;
34236;SDS011;20501;45.956;13.632;2023-02-28T02:57:48;13.38;;;6.75;;
34236;SDS011;20501;45.956;13.632;2023-02-28T03:00:17;16.40;;;7.05;;
34236;SDS011;20501;45.956;13.632;2023-02-28T03:02:48;13.68;;;6.72;;
34236;SDS011;20501;45.956;13.632;2023-02-28T03:05:19;11.30;;;5.60;;
34236;SDS011;20501;45.956;13.632;2023-02-28T03:07:50;8.10;;;5.00;;
34236;SDS011;20501;45.956;13.632;2023-02-28T03:10:26;10.80;;;6.45;;
34236;SDS011;20501;45.956;13.632;2023-02-28T03:12:54;11.30;;;6.13;;
34236;SDS011;20501;45.956;13.632;2023-02-28T03:15:30;12.80;;;6.30;;
34236;SDS011;20501;45.956;13.632;2023-02-28T03:18:10;12.70;;;7.00;;
34236;SDS011;20501;45.956;13.632;2023-02-28T03:20:52;11.57;;;6.90;;
34236;SDS011;20501;45.956;13.632;2023-02-28T03:23:37;9.18;;;5.18;;
34236;SDS011;20501;45.956;13.632;2023-02-28T03:26:18;11.63;;;6.15;;
34236;SDS011;20501;45.956;13.632;2023-02-28T03:34:01;13.77;;;6.80;;
34236;SDS011;20501;45.956;13.632;2023-02-28T03:36:30;12.90;;;7.05;;
34236;SDS011;20501;45.956;13.632;2023-02-28T03:39:04;8.50;;;5.53;;
34236;SDS011;20501;45.956;13.632;2023-02-28T03:41:45;14.35;;;7.07;;
34236;SDS011;20501;45.956;13.632;2023-02-28T03:44:39;15.13;;;8.02;;
34236;SDS011;20501;45.956;13.632;2023-02-28T03:47:39;16.17;;;7.93;;
34236;SDS011;20501;45.956;13.632;2023-02-28T03:50:11;12.40;;;6.82;;
34236;SDS011;20501;45.956;13.632;2023-02-28T03:52:47;12.80;;;7.40;;
34236;SDS011;20501;45.956;13.632;2023-02-28T03:55:16;10.95;;;6.82;;
34236;SDS011;20501;45.956;13.632;2023-02-28T04:00:19;12.60;;;6.63;;
34236;SDS011;20501;45.956;13.632;2023-02-28T04:05:21;9.90;;;6.38;;
34236;SDS011;20501;45.956;13.632;2023-02-28T04:07:47;10.27;;;6.03;;
34236;SDS011;20501;45.956;13.632;2023-02-28T04:10:13;13.88;;;6.43;;
34236;SDS011;20501;45.956;13.632;2023-02-28T04:12:40;10.18;;;5.82;;
34236;SDS011;20501;45.956;13.632;2023-02-28T04:15:06;9.57;;;5.78;;
34236;SDS011;20501;45.956;13.632;2023-02-28T04:17:32;8.57;;;6.18;;
34236;SDS011;20501;45.956;13.632;2023-02-28T04:19:57;11.85;;;6.40;;
34236;SDS011;20501;45.956;13.632;2023-02-28T04:22:23;14.23;;;7.07;;
34236;SDS011;20501;45.956;13.632;2023-02-28T04:24:51;12.68;;;7.28;;
34236;SDS011;20501;45.956;13.632;2023-02-28T04:27:19;10.63;;;6.45;;
34236;SDS011;20501;45.956;13.632;2023-02-28T04:29:45;13.65;;;7.63;;
34236;SDS011;20501;45.956;13.632;2023-02-28T04:32:11;12.35;;;6.80;;
34236;SDS011;20501;45.956;13.632;2023-02-28T04:34:36;15.02;;;6.93;;
34236;SDS011;20501;45.956;13.632;2023-02-28T04:37:02;12.73;;;6.60;;
34236;SDS011;20501;45.956;13.632;2023-02-28T04:39:28;13.02;;;6.57;;
34236;SDS011;20501;45.956;13.632;2023-02-28T04:41:54;15.18;;;7.90;;
34236;SDS011;20501;45.956;13.632;2023-02-28T04:44:20;12.67;;;5.53;;
34236;SDS011;20501;45.956;13.632;2023-02-28T04:46:47;9.98;;;5.80;;
34236;SDS011;20501;45.956;13.632;2023-02-28T04:49:13;7.57;;;5.03;;
34236;SDS011;20501;45.956;13.632;2023-02-28T04:51:40;9.85;;;5.63;;
34236;SDS011;20501;45.956;13.632;2023-02-28T04:54:06;11.15;;;6.30;;
34236;SDS011;20501;45.956;13.632;2023-02-28T04:56:32;13.95;;;7.53;;
34236;SDS011;20501;45.956;13.632;2023-02-28T04:58:58;18.35;;;7.00;;
34236;SDS011;20501;45.956;13.632;2023-02-28T05:03:52;10.50;;;6.88;;
34236;SDS011;20501;45.956;13.632;2023-02-28T05:06:20;10.05;;;6.05;;
34236;SDS011;20501;45.956;13.632;2023-02-28T05:08:48;13.50;;;6.03;;
34236;SDS011;20501;45.956;13.632;2023-02-28T05:11:18;11.60;;;6.15;;
34236;SDS011;20501;45.956;13.632;2023-02-28T05:13:51;10.80;;;6.10;;
34236;SDS011;20501;45.956;13.632;2023-02-28T05:16:17;10.82;;;6.80;;
34236;SDS011;20501;45.956;13.632;2023-02-28T05:18:43;9.65;;;6.03;;
34236;SDS011;20501;45.956;13.632;2023-02-28T05:23:56;11.63;;;6.70;;
34236;SDS011;20501;45.956;13.632;2023-02-28T05:26:23;10.35;;;6.28;;
34236;SDS011;20501;45.956;13.632;2023-02-28T05:28:49;11.60;;;5.95;;
34236;SDS011;20501;45.956;13.632;2023-02-28T05:31:15;12.70;;;7.13;;
34236;SDS011;20501;45.956;13.632;2023-02-28T05:33:40;8.50;;;5.50;;
34236;SDS011;20501;45.956;13.632;2023-02-28T05:36:06;7.95;;;5.50;;
34236;SDS011;20501;45.956;13.632;2023-02-28T05:38:32;11.68;;;6.68;;
34236;SDS011;20501;45.956;13.632;2023-02-28T05:40:57;14.15;;;6.70;;
34236;SDS011;20501;45.956;13.632;2023-02-28T05:43:23;10.65;;;6.53;;
34236;SDS011;20501;45.956;13.632;2023-02-28T05:45:49;10.23;;;5.65;;
34236;SDS011;20501;45.956;13.632;2023-02-28T05:48:14;13.07;;;7.32;;
34236;SDS011;20501;45.956;13.632;2023-02-28T05:50:40;12.23;;;5.85;;
34236;SDS011;20501;45.956;13.632;2023-02-28T05:53:07;13.65;;;6.90;;
34236;SDS011;20501;45.956;13.632;2023-02-28T05:55:33;10.20;;;6.97;;
34236;SDS011;20501;45.956;13.632;2023-02-28T05:58:00;11.20;;;6.05;;
34236;SDS011;20501;45.956;13.632;2023-02-28T06:00:26;11.15;;;5.80;;
34236;SDS011;20501;45.956;13.632;2023-02-28T06:02:52;11.02;;;5.80;;
34236;SDS011;20501;45.956;13.632;2023-02-28T06:05:21;14.43;;;7.68;;
34236;SDS011;20501;45.956;13.632;2023-02-28T06:07:46;12.45;;;6.47;;
34236;SDS011;20501;45.956;13.632;2023-02-28T06:10:12;12.10;;;6.80;;
34236;SDS011;20501;45.956;13.632;2023-02-28T06:12:38;10.85;;;5.68;;
34236;SDS011;20501;45.956;13.632;2023-02-28T06:15:03;10.45;;;6.43;;
34236;SDS011;20501;45.956;13.632;2023-02-28T06:17:29;15.75;;;6.03;;
34236;SDS011;20501;45.956;13.632;2023-02-28T06:19:55;13.48;;;5.78;;
34236;SDS011;20501;45.956;13.632;2023-02-28T06:22:20;11.90;;;6.63;;
34236;SDS011;20501;45.956;13.632;2023-02-28T06:24:46;10.43;;;6.47;;
34236;SDS011;20501;45.956;13.632;2023-02-28T06:27:11;11.82;;;5.55;;
34236;SDS011;20501;45.956;13.632;2023-02-28T06:29:37;12.40;;;5.78;;
34236;SDS011;20501;45.956;13.632;2023-02-28T06:32:04;15.75;;;6.30;;
34236;SDS011;20501;45.956;13.632;2023-02-28T06:34:31;12.90;;;6.07;;
34236;SDS011;20501;45.956;13.632;2023-02-28T06:36:56;8.57;;;5.45;;
34236;SDS011;20501;45.956;13.632;2023-02-28T06:39:27;10.20;;;5.60;;
34236;SDS011;20501;45.956;13.632;2023-02-28T06:41:53;11.00;;;6.27;;
34236;SDS011;20501;45.956;13.632;2023-02-28T06:44:18;11.27;;;6.25;;
34236;SDS011;20501;45.956;13.632;2023-02-28T06:46:44;11.32;;;5.88;;
34236;SDS011;20501;45.956;13.632;2023-02-28T06:49:10;12.73;;;6.28;;
34236;SDS011;20501;45.956;13.632;2023-02-28T06:51:40;9.98;;;5.63;;
34236;SDS011;20501;45.956;13.632;2023-02-28T06:54:07;12.15;;;6.10;;
34236;SDS011;20501;45.956;13.632;2023-02-28T06:58:59;19.98;;;6.70;;
34236;SDS011;20501;45.956;13.632;2023-02-28T07:01:25;16.27;;;6.03;;
34236;SDS011;20501;45.956;13.632;2023-02-28T07:03:50;19.08;;;5.25;;
34236;SDS011;20501;45.956;13.632;2023-02-28T07:06:18;17.60;;;5.45;;
34236;SDS011;20501;45.956;13.632;2023-02-28T07:08:44;10.38;;;6.25;;
34236;SDS011;20501;45.956;13.632;2023-02-28T07:11:10;13.65;;;5.45;;
34236;SDS011;20501;45.956;13.632;2023-02-28T07:13:36;12.13;;;5.75;;
34236;SDS011;20501;45.956;13.632;2023-02-28T07:16:03;14.57;;;6.25;;
34236;SDS011;20501;45.956;13.632;2023-02-28T07:18:31;12.00;;;6.30;;
34236;SDS011;20501;45.956;13.632;2023-02-28T07:20:57;14.68;;;6.93;;
34236;SDS011;20501;45.956;13.632;2023-02-28T07:23:23;11.52;;;6.07;;
34236;SDS011;20501;45.956;13.632;2023-02-28T07:25:49;10.48;;;6.10;;
34236;SDS011;20501;45.956;13.632;2023-02-28T07:28:15;11.45;;;5.72;;
34236;SDS011;20501;45.956;13.632;2023-02-28T07:30:41;12.63;;;6.10;;
34236;SDS011;20501;45.956;13.632;2023-02-28T07:33:07;9.52;;;6.00;;
34236;SDS011;20501;45.956;13.632;2023-02-28T07:35:33;11.90;;;6.10;;
34236;SDS011;20501;45.956;13.632;2023-02-28T07:37:58;9.73;;;5.68;;
34236;SDS011;20501;45.956;13.632;2023-02-28T07:40:24;9.60;;;5.30;;
34236;SDS011;20501;45.956;13.632;2023-02-28T07:42:50;12.52;;;6.32;;
34236;SDS011;20501;45.956;13.632;2023-02-28T07:45:16;13.90;;;6.00;;
34236;SDS011;20501;45.956;13.632;2023-02-28T07:47:42;10.18;;;5.68;;
34236;SDS011;20501;45.956;13.632;2023-02-28T07:50:09;9.65;;;5.35;;
34236;SDS011;20501;45.956;13.632;2023-02-28T07:52:37;8.88;;;4.68;;
34236;SDS011;20501;45.956;13.632;2023-02-28T07:55:03;10.82;;;5.13;;
34236;SDS011;20501;45.956;13.632;2023-02-28T07:57:29;10.18;;;5.60;;
34236;SDS011;20501;45.956;13.632;2023-02-28T07:59:55;10.18;;;5.13;;
34236;SDS011;20501;45.956;13.632;2023-02-28T08:02:20;9.75;;;5.22;;
34236;SDS011;20501;45.956;13.632;2023-02-28T08:04:46;8.73;;;5.43;;
34236;SDS011;20501;45.956;13.632;2023-02-28T08:07:13;12.48;;;5.20;;
34236;SDS011;20501;45.956;13.632;2023-02-28T08:09:39;10.20;;;4.82;;
34236;SDS011;20501;45.956;13.632;2023-02-28T08:12:06;8.68;;;5.10;;
34236;SDS011;20501;45.956;13.632;2023-02-28T08:16:57;11.48;;;5.05;;
34236;SDS011;20501;45.956;13.632;2023-02-28T08:19:23;9.98;;;4.75;;
34236;SDS011;20501;45.956;13.632;2023-02-28T08:21:48;10.65;;;5.75;;
34236;SDS011;20501;45.956;13.632;2023-02-28T08:24:14;9.60;;;4.93;;
34236;SDS011;20501;45.956;13.632;2023-02-28T08:26:39;8.60;;;5.78;;
34236;SDS011;20501;45.956;13.632;2023-02-28T08:29:04;10.13;;;5.60;;
34236;SDS011;20501;45.956;13.632;2023-02-28T08:31:30;10.63;;;4.55;;
34236;SDS011;20501;45.956;13.632;2023-02-28T08:33:55;9.65;;;5.88;;
34236;SDS011;20501;45.956;13.632;2023-02-28T08:36:24;9.73;;;4.75;;
34236;SDS011;20501;45.956;13.632;2023-02-28T08:38:50;10.90;;;5.85;;
34236;SDS011;20501;45.956;13.632;2023-02-28T08:41:15;15.88;;;5.22;;
34236;SDS011;20501;45.956;13.632;2023-02-28T08:43:41;9.07;;;4.63;;
34236;SDS011;20501;45.956;13.632;2023-02-28T08:46:07;10.10;;;4.60;;
34236;SDS011;20501;45.956;13.632;2023-02-28T08:48:36;8.00;;;4.28;;
34236;SDS011;20501;45.956;13.632;2023-02-28T08:51:08;10.77;;;4.63;;
34236;SDS011;20501;45.956;13.632;2023-02-28T08:53:36;9.13;;;5.65;;
34236;SDS011;20501;45.956;13.632;2023-02-28T08:56:03;6.43;;;4.33;;
34236;SDS011;20501;45.956;13.632;2023-02-28T08:58:35;8.30;;;4.38;;
34236;SDS011;20501;45.956;13.632;2023-02-28T09:01:06;10.00;;;5.10;;
34236;SDS011;20501;45.956;13.632;2023-02-28T09:03:33;10.40;;;5.90;;
34236;SDS011;20501;45.956;13.632;2023-02-28T09:05:59;10.23;;;4.93;;
34236;SDS011;20501;45.956;13.632;2023-02-28T09:08:27;11.23;;;5.93;;
34236;SDS011;20501;45.956;13.632;2023-02-28T09:10:53;11.02;;;5.25;;
34236;SDS011;20501;45.956;13.632;2023-02-28T09:13:19;10.10;;;4.97;;
34236;SDS011;20501;45.956;13.632;2023-02-28T09:15:45;9.73;;;4.93;;
34236;SDS011;20501;45.956;13.632;2023-02-28T09:18:11;8.55;;;5.38;;
34236;SDS011;20501;45.956;13.632;2023-02-28T09:20:38;11.95;;;5.72;;
34236;SDS011;20501;45.956;13.632;2023-02-28T09:25:30;14.45;;;6.80;;
34236;SDS011;20501;45.956;13.632;2023-02-28T09:27:55;10.70;;;5.43;;
34236;SDS011;20501;45.956;13.632;2023-02-28T09:30:21;11.35;;;5.20;;
34236;SDS011;20501;45.956;13.632;2023-02-28T09:32:46;12.18;;;6.05;;
34236;SDS011;20501;45.956;13.632;2023-02-28T09:35:17;10.63;;;5.65;;
34236;SDS011;20501;45.956;13.632;2023-02-28T09:37:43;9.10;;;5.63;;
34236;SDS011;20501;45.956;13.632;2023-02-28T09:40:09;8.77;;;5.10;;
34236;SDS011;20501;45.956;13.632;2023-02-28T09:42:37;14.52;;;6.47;;
34236;SDS011;20501;45.956;13.632;2023-02-28T09:45:06;10.93;;;5.45;;
34236;SDS011;20501;45.956;13.632;2023-02-28T09:47:49;11.55;;;5.63;;
34236;SDS011;20501;45.956;13.632;2023-02-28T09:58:10;14.18;;;5.80;;
34236;SDS011;20501;45.956;13.632;2023-02-28T10:00:58;13.23;;;6.97;;
34236;SDS011;20501;45.956;13.632;2023-02-28T10:03:30;10.27;;;5.75;;
34236;SDS011;20501;45.956;13.632;2023-02-28T10:06:03;13.15;;;6.53;;
34236;SDS011;20501;45.956;13.632;2023-02-28T10:08:32;11.95;;;5.88;;
34236;SDS011;20501;45.956;13.632;2023-02-28T10:11:06;10.02;;;5.88;;
34236;SDS011;20501;45.956;13.632;2023-02-28T10:13:56;12.48;;;5.97;;
34236;SDS011;20501;45.956;13.632;2023-02-28T10:22:23;10.63;;;5.72;;
34236;SDS011;20501;45.956;13.632;2023-02-28T10:24:55;12.20;;;6.20;;
34236;SDS011;20501;45.956;13.632;2023-02-28T10:27:26;10.57;;;5.90;;
34236;SDS011;20501;45.956;13.632;2023-02-28T10:29:55;13.57;;;6.35;;
34236;SDS011;20501;45.956;13.632;2023-02-28T10:32:23;10.73;;;5.82;;
34236;SDS011;20501;45.956;13.632;2023-02-28T10:37:45;11.30;;;5.97;;
34236;SDS011;20501;45.956;13.632;2023-02-28T10:42:42;12.02;;;6.15;;
34236;SDS011;20501;45.956;13.632;2023-02-28T10:45:40;10.50;;;5.78;;
34236;SDS011;20501;45.956;13.632;2023-02-28T10:51:13;9.90;;;5.72;;
34236;SDS011;20501;45.956;13.632;2023-02-28T10:53:47;15.85;;;6.35;;
34236;SDS011;20501;45.956;13.632;2023-02-28T10:56:18;9.38;;;5.80;;
34236;SDS011;20501;45.956;13.632;2023-02-28T11:03:57;14.05;;;5.97;;
34236;SDS011;20501;45.956;13.632;2023-02-28T11:06:24;11.32;;;6.20;;
34236;SDS011;20501;45.956;13.632;2023-02-28T11:08:55;12.77;;;6.03;;
34236;SDS011;20501;45.956;13.632;2023-02-28T11:11:27;19.90;;;6.45;;
34236;SDS011;20501;45.956;13.632;2023-02-28T11:13:56;12.00;;;5.78;;
34236;SDS011;20501;45.956;13.632;2023-02-28T11:16:32;10.98;;;6.00;;
34236;SDS011;20501;45.956;13.632;2023-02-28T11:19:00;15.50;;;7.65;;
34236;SDS011;20501;45.956;13.632;2023-02-28T11:21:33;12.73;;;6.00;;
34236;SDS011;20501;45.956;13.632;2023-02-28T11:29:55;11.63;;;6.50;;
34236;SDS011;20501;45.956;13.632;2023-02-28T11:32:22;12.90;;;6.32;;
34236;SDS011;20501;45.956;13.632;2023-02-28T11:35:01;15.90;;;7.00;;
34236;SDS011;20501;45.956;13.632;2023-02-28T11:37:41;14.07;;;6.13;;
34236;SDS011;20501;45.956;13.632;2023-02-28T11:40:29;10.52;;;6.20;;
34236;SDS011;20501;45.956;13.632;2023-02-28T11:48:27;12.30;;;6.13;;
34236;SDS011;20501;45.956;13.632;2023-02-28T11:51:45;12.45;;;5.97;;
34236;SDS011;20501;45.956;13.632;2023-02-28T12:06:25;12.00;;;6.38;;
34236;SDS011;20501;45.956;13.632;2023-02-28T12:11:40;15.13;;;7.03;;
34236;SDS011;20501;45.956;13.632;2023-02-28T12:25:02;19.83;;;7.10;;
34236;SDS011;20501;45.956;13.632;2023-02-28T12:27:40;13.48;;;6.80;;
34236;SDS011;20501;45.956;13.632;2023-02-28T12:30:25;11.13;;;5.95;;
34236;SDS011;20501;45.956;13.632;2023-02-28T12:33:07;12.35;;;6.22;;
34236;SDS011;20501;45.956;13.632;2023-02-28T12:35:49;14.57;;;6.38;;
34236;SDS011;20501;45.956;13.632;2023-02-28T12:39:03;10.27;;;5.45;;
34236;SDS011;20501;45.956;13.632;2023-02-28T12:47:05;13.85;;;7.05;;
34236;SDS011;20501;45.956;13.632;2023-02-28T12:49:41;11.48;;;6.65;;
34236;SDS011;20501;45.956;13.632;2023-02-28T12:52:11;13.93;;;7.07;;
34236;SDS011;20501;45.956;13.632;2023-02-28T12:54:46;13.85;;;6.22;;
34236;SDS011;20501;45.956;13.632;2023-02-28T12:57:38;12.40;;;5.70;;
34236;SDS011;20501;45.956;13.632;2023-02-28T13:00:12;12.68;;;6.53;;
34236;SDS011;20501;45.956;13.632;2023-02-28T13:10:22;20.98;;;6.30;;
34236;SDS011;20501;45.956;13.632;2023-02-28T13:12:49;10.50;;;5.88;;
34236;SDS011;20501;45.956;13.632;2023-02-28T13:17:53;13.52;;;6.93;;
34236;SDS011;20501;45.956;13.632;2023-02-28T13:20:23;10.77;;;6.30;;
34236;SDS011;20501;45.956;13.632;2023-02-28T13:22:52;12.13;;;5.80;;
34236;SDS011;20501;45.956;13.632;2023-02-28T13:27:47;11.38;;;6.03;;
34236;SDS011;20501;45.956;13.632;2023-02-28T13:33:28;12.35;;;6.90;;
34236;SDS011;20501;45.956;13.632;2023-02-28T13:38:34;11.63;;;6.60;;
34236;SDS011;20501;45.956;13.632;2023-02-28T13:46:38;13.27;;;6.95;;
34236;SDS011;20501;45.956;13.632;2023-02-28T13:57:44;12.95;;;7.00;;
34236;SDS011;20501;45.956;13.632;2023-02-28T14:05:36;8.52;;;5.10;;
34236;SDS011;20501;45.956;13.632;2023-02-28T14:10:50;10.07;;;6.07;;
34236;SDS011;20501;45.956;13.632;2023-02-28T14:16:13;8.40;;;5.07;;
34236;SDS011;20501;45.956;13.632;2023-02-28T14:18:47;9.13;;;5.78;;
34236;SDS011;20501;45.956;13.632;2023-02-28T14:26:47;9.05;;;5.20;;
34236;SDS011;20501;45.956;13.632;2023-02-28T14:37:49;10.50;;;5.65;;
34236;SDS011;20501;45.956;13.632;2023-02-28T14:40:16;8.90;;;5.85;;
34236;SDS011;20501;45.956;13.632;2023-02-28T14:42:54;9.45;;;5.43;;
34236;SDS011;20501;45.956;13.632;2023-02-28T14:45:22;13.13;;;6.40;;
34236;SDS011;20501;45.956;13.632;2023-02-28T14:47:51;8.63;;;5.22;;
34236;SDS011;20501;45.956;13.632;2023-02-28T14:50:21;8.55;;;5.20;;
34236;SDS011;20501;45.956;13.632;2023-02-28T14:52:51;9.27;;;5.47;;
34236;SDS011;20501;45.956;13.632;2023-02-28T14:55:18;8.30;;;5.57;;
34236;SDS011;20501;45.956;13.632;2023-02-28T14:57:51;10.35;;;5.65;;
34236;SDS011;20501;45.956;13.632;2023-02-28T15:02:47;12.52;;;6.65;;
34236;SDS011;20501;45.956;13.632;2023-02-28T15:07:38;12.10;;;6.20;;
34236;SDS011;20501;45.956;13.632;2023-02-28T15:12:39;12.27;;;6.70;;
34236;SDS011;20501;45.956;13.632;2023-02-28T15:15:13;12.20;;;6.78;;
34236;SDS011;20501;45.956;13.632;2023-02-28T15:17:40;13.05;;;6.63;;
34236;SDS011;20501;45.956;13.632;2023-02-28T15:20:11;12.75;;;7.43;;
34236;SDS011;20501;45.956;13.632;2023-02-28T15:22:38;12.05;;;6.90;;
34236;SDS011;20501;45.956;13.632;2023-02-28T15:25:04;11.85;;;7.40;;
34236;SDS011;20501;45.956;13.632;2023-02-28T15:27:33;11.88;;;6.82;;
34236;SDS011;20501;45.956;13.632;2023-02-28T15:30:04;11.77;;;7.10;;
34236;SDS011;20501;45.956;13.632;2023-02-28T15:32:33;12.15;;;6.95;;
34236;SDS011;20501;45.956;13.632;2023-02-28T15:37:48;10.50;;;6.55;;
34236;SDS011;20501;45.956;13.632;2023-02-28T15:43:00;13.80;;;7.47;;
34236;SDS011;20501;45.956;13.632;2023-02-28T15:48:42;15.35;;;8.05;;
34236;SDS011;20501;45.956;13.632;2023-02-28T15:51:24;11.90;;;7.10;;
34236;SDS011;20501;45.956;13.632;2023-02-28T15:54:05;12.10;;;7.22;;
34236;SDS011;20501;45.956;13.632;2023-02-28T15:56:35;13.05;;;7.22;;
34236;SDS011;20501;45.956;13.632;2023-02-28T15:59:07;12.52;;;7.32;;
34236;SDS011;20501;45.956;13.632;2023-02-28T16:01:41;17.67;;;8.05;;
34236;SDS011;20501;45.956;13.632;2023-02-28T16:04:17;16.95;;;8.55;;
34236;SDS011;20501;45.956;13.632;2023-02-28T16:06:45;13.18;;;8.00;;
34236;SDS011;20501;45.956;13.632;2023-02-28T16:09:11;13.60;;;8.25;;
34236;SDS011;20501;45.956;13.632;2023-02-28T16:11:39;16.77;;;8.23;;
34236;SDS011;20501;45.956;13.632;2023-02-28T16:14:14;16.20;;;7.82;;
34236;SDS011;20501;45.956;13.632;2023-02-28T16:16:46;15.75;;;8.80;;
34236;SDS011;20501;45.956;13.632;2023-02-28T16:19:14;13.60;;;7.95;;
34236;SDS011;20501;45.956;13.632;2023-02-28T16:21:40;14.75;;;8.90;;
34236;SDS011;20501;45.956;13.632;2023-02-28T16:24:06;13.55;;;8.30;;
34236;SDS011;20501;45.956;13.632;2023-02-28T16:26:32;14.73;;;7.90;;
34236;SDS011;20501;45.956;13.632;2023-02-28T16:28:59;14.48;;;8.55;;
34236;SDS011;20501;45.956;13.632;2023-02-28T16:31:26;12.70;;;7.78;;
34236;SDS011;20501;45.956;13.632;2023-02-28T16:33:52;15.57;;;8.60;;
34236;SDS011;20501;45.956;13.632;2023-02-28T16:36:20;15.63;;;9.52;;
34236;SDS011;20501;45.956;13.632;2023-02-28T16:38:48;19.10;;;10.40;;
34236;SDS011;20501;45.956;13.632;2023-02-28T16:41:20;12.95;;;7.40;;
34236;SDS011;20501;45.956;13.632;2023-02-28T16:43:49;13.65;;;8.80;;
34236;SDS011;20501;45.956;13.632;2023-02-28T16:46:17;15.65;;;8.85;;
34236;SDS011;20501;45.956;13.632;2023-02-28T16:48:44;17.50;;;9.43;;
34236;SDS011;20501;45.956;13.632;2023-02-28T16:51:11;18.30;;;8.60;;
34236;SDS011;20501;45.956;13.632;2023-02-28T16:53:38;22.13;;;11.70;;
34236;SDS011;20501;45.956;13.632;2023-02-28T16:56:04;18.85;;;10.55;;
34236;SDS011;20501;45.956;13.632;2023-02-28T16:58:31;19.30;;;10.40;;
34236;SDS011;20501;45.956;13.632;2023-02-28T17:01:00;16.70;;;9.55;;
34236;SDS011;20501;45.956;13.632;2023-02-28T17:03:26;21.08;;;11.23;;
34236;SDS011;20501;45.956;13.632;2023-02-28T17:05:52;22.92;;;12.45;;
34236;SDS011;20501;45.956;13.632;2023-02-28T17:08:21;27.35;;;13.88;;
34236;SDS011;20501;45.956;13.632;2023-02-28T17:10:46;15.93;;;9.93;;
34236;SDS011;20501;45.956;13.632;2023-02-28T17:13:12;15.68;;;8.93;;
34236;SDS011;20501;45.956;13.632;2023-02-28T17:15:37;15.75;;;8.85;;
34236;SDS011;20501;45.956;13.632;2023-02-28T17:18:04;20.57;;;10.30;;
34236;SDS011;20501;45.956;13.632;2023-02-28T17:20:30;17.73;;;9.07;;
34236;SDS011;20501;45.956;13.632;2023-02-28T17:22:56;17.45;;;8.40;;
34236;SDS011;20501;45.956;13.632;2023-02-28T17:25:22;16.90;;;8.70;;
34236;SDS011;20501;45.956;13.632;2023-02-28T17:27:48;16.33;;;8.30;;
34236;SDS011;20501;45.956;13.632;2023-02-28T17:32:43;15.55;;;8.20;;
34236;SDS011;20501;45.956;13.632;2023-02-28T17:35:08;16.27;;;8.57;;
34236;SDS011;20501;45.956;13.632;2023-02-28T17:37:34;18.08;;;8.85;;
34236;SDS011;20501;45.956;13.632;2023-02-28T17:39:59;14.57;;;7.97;;
34236;SDS011;20501;45.956;13.632;2023-02-28T17:42:25;21.67;;;10.45;;
34236;SDS011;20501;45.956;13.632;2023-02-28T17:44:50;19.63;;;10.10;;
34236;SDS011;20501;45.956;13.632;2023-02-28T17:47:16;14.75;;;8.32;;
34236;SDS011;20501;45.956;13.632;2023-02-28T17:49:41;15.93;;;8.05;;
34236;SDS011;20501;45.956;13.632;2023-02-28T17:52:07;18.25;;;9.05;;
34236;SDS011;20501;45.956;13.632;2023-02-28T17:54:33;17.93;;;9.03;;
34236;SDS011;20501;45.956;13.632;2023-02-28T17:56:58;13.40;;;7.65;;
34236;SDS011;20501;45.956;13.632;2023-02-28T17:59:24;18.52;;;9.30;;